sensor_id;sensor_type;location;lat;lon;timestamp;temperature;humidity
16229;DHT22;8222;51.462;12.630;2023-05-29T00:01:46;13.30;99.90
16229;DHT22;8222;51.462;12.630;2023-05-29T00:04:12;13.00;99.90
16229;DHT22;8222;51.462;12.630;2023-05-29T00:06:40;12.70;99.90
16229;DHT22;8222;51.462;12.630;2023-05-29T00:09:06;12.70;99.90
16229;DHT22;8222;51.462;12.630;2023-05-29T00:11:37;12.60;99.90
16229;DHT22;8222;51.462;12.630;2023-05-29T00:14:02;12.60;99.90
16229;DHT22;8222;51.462;12.630;2023-05-29T00:16:28;12.60;99.90
16229;DHT22;8222;51.462;12.630;2023-05-29T00:18:56;12.60;99.90
16229;DHT22;8222;51.462;12.630;2023-05-29T00:21:43;12.60;99.90
16229;DHT22;8222;51.462;12.630;2023-05-29T00:24:16;12.50;99.90
16229;DHT22;8222;51.462;12.630;2023-05-29T00:26:42;12.50;99.90
16229;DHT22;8222;51.462;12.630;2023-05-29T00:29:08;12.60;99.90
16229;DHT22;8222;51.462;12.630;2023-05-29T00:31:34;12.60;99.90
16229;DHT22;8222;51.462;12.630;2023-05-29T00:34:04;12.70;99.90
16229;DHT22;8222;51.462;12.630;2023-05-29T00:36:32;12.60;99.90
16229;DHT22;8222;51.462;12.630;2023-05-29T00:38:58;12.60;99.90
16229;DHT22;8222;51.462;12.630;2023-05-29T00:41:26;12.60;99.90
16229;DHT22;8222;51.462;12.630;2023-05-29T00:43:55;12.60;99.90
16229;DHT22;8222;51.462;12.630;2023-05-29T00:46:20;12.50;99.90
16229;DHT22;8222;51.462;12.630;2023-05-29T00:48:52;12.40;99.90
16229;DHT22;8222;51.462;12.630;2023-05-29T00:51:18;12.40;99.90
16229;DHT22;8222;51.462;12.630;2023-05-29T00:53:45;12.40;99.90
16229;DHT22;8222;51.462;12.630;2023-05-29T00:56:11;12.50;99.90
16229;DHT22;8222;51.462;12.630;2023-05-29T00:58:41;12.40;99.90
16229;DHT22;8222;51.462;12.630;2023-05-29T01:01:09;12.40;99.90
16229;DHT22;8222;51.462;12.630;2023-05-29T01:03:38;12.40;99.90
16229;DHT22;8222;51.462;12.630;2023-05-29T01:06:05;12.60;99.90
16229;DHT22;8222;51.462;12.630;2023-05-29T01:08:31;12.60;99.90
16229;DHT22;8222;51.462;12.630;2023-05-29T01:11:08;12.60;99.90
16229;DHT22;8222;51.462;12.630;2023-05-29T01:13:41;12.50;99.90
16229;DHT22;8222;51.462;12.630;2023-05-29T01:24:48;12.40;99.90
16229;DHT22;8222;51.462;12.630;2023-05-29T01:26:58;12.50;99.90
16229;DHT22;8222;51.462;12.630;2023-05-29T01:29:29;12.40;99.90
16229;DHT22;8222;51.462;12.630;2023-05-29T01:31:57;12.40;99.90
16229;DHT22;8222;51.462;12.630;2023-05-29T01:34:23;12.20;99.90
16229;DHT22;8222;51.462;12.630;2023-05-29T01:36:49;12.20;99.90
16229;DHT22;8222;51.462;12.630;2023-05-29T01:39:16;12.10;99.90
16229;DHT22;8222;51.462;12.630;2023-05-29T01:41:44;12.10;99.90
16229;DHT22;8222;51.462;12.630;2023-05-29T01:44:14;12.00;99.90
16229;DHT22;8222;51.462;12.630;2023-05-29T01:46:41;11.90;99.90
16229;DHT22;8222;51.462;12.630;2023-05-29T01:49:07;11.80;99.90
16229;DHT22;8222;51.462;12.630;2023-05-29T01:51:34;11.70;99.90
16229;DHT22;8222;51.462;12.630;2023-05-29T01:54:01;11.70;99.90
16229;DHT22;8222;51.462;12.630;2023-05-29T01:56:29;11.60;99.90
16229;DHT22;8222;51.462;12.630;2023-05-29T01:59:00;11.50;99.90
16229;DHT22;8222;51.462;12.630;2023-05-29T02:01:27;11.50;99.90
16229;DHT22;8222;51.462;12.630;2023-05-29T02:03:52;11.50;99.90
16229;DHT22;8222;51.462;12.630;2023-05-29T02:06:18;11.50;99.90
16229;DHT22;8222;51.462;12.630;2023-05-29T02:08:49;11.50;99.90
16229;DHT22;8222;51.462;12.630;2023-05-29T02:11:15;11.60;99.90
16229;DHT22;8222;51.462;12.630;2023-05-29T02:13:41;11.50;99.90
16229;DHT22;8222;51.462;12.630;2023-05-29T02:16:09;11.50;99.90
16229;DHT22;8222;51.462;12.630;2023-05-29T02:18:35;11.40;99.90
16229;DHT22;8222;51.462;12.630;2023-05-29T02:21:05;11.30;99.90
16229;DHT22;8222;51.462;12.630;2023-05-29T02:23:31;11.30;99.90
16229;DHT22;8222;51.462;12.630;2023-05-29T02:25:58;11.30;99.90
16229;DHT22;8222;51.462;12.630;2023-05-29T02:28:26;11.30;99.90
16229;DHT22;8222;51.462;12.630;2023-05-29T02:30:52;11.30;99.90
16229;DHT22;8222;51.462;12.630;2023-05-29T02:33:20;11.30;99.90
16229;DHT22;8222;51.462;12.630;2023-05-29T02:35:46;11.30;99.90
16229;DHT22;8222;51.462;12.630;2023-05-29T02:38:14;11.30;99.90
16229;DHT22;8222;51.462;12.630;2023-05-29T02:40:43;11.30;99.90
16229;DHT22;8222;51.462;12.630;2023-05-29T02:43:11;11.20;99.90
16229;DHT22;8222;51.462;12.630;2023-05-29T02:45:40;11.20;99.90
16229;DHT22;8222;51.462;12.630;2023-05-29T02:48:06;11.20;99.90
16229;DHT22;8222;51.462;12.630;2023-05-29T02:50:32;11.10;99.90
16229;DHT22;8222;51.462;12.630;2023-05-29T02:52:57;11.00;99.90
16229;DHT22;8222;51.462;12.630;2023-05-29T02:55:23;11.10;99.90
16229;DHT22;8222;51.462;12.630;2023-05-29T02:57:53;11.20;99.90
16229;DHT22;8222;51.462;12.630;2023-05-29T03:00:21;11.20;99.90
16229;DHT22;8222;51.462;12.630;2023-05-29T03:02:46;11.10;99.90
16229;DHT22;8222;51.462;12.630;2023-05-29T03:05:15;11.00;99.90
16229;DHT22;8222;51.462;12.630;2023-05-29T03:07:42;11.10;99.90
16229;DHT22;8222;51.462;12.630;2023-05-29T03:10:11;11.20;99.90
16229;DHT22;8222;51.462;12.630;2023-05-29T03:12:40;11.20;99.90
16229;DHT22;8222;51.462;12.630;2023-05-29T03:15:06;11.20;99.90
16229;DHT22;8222;51.462;12.630;2023-05-29T03:17:33;11.10;99.90
16229;DHT22;8222;51.462;12.630;2023-05-29T03:19:59;11.10;99.90
16229;DHT22;8222;51.462;12.630;2023-05-29T03:22:29;11.00;99.90
16229;DHT22;8222;51.462;12.630;2023-05-29T03:24:54;11.00;99.90
16229;DHT22;8222;51.462;12.630;2023-05-29T03:27:20;10.90;99.90
16229;DHT22;8222;51.462;12.630;2023-05-29T03:29:46;10.90;99.90
16229;DHT22;8222;51.462;12.630;2023-05-29T03:32:12;11.00;99.90
16229;DHT22;8222;51.462;12.630;2023-05-29T03:34:37;11.10;99.90
16229;DHT22;8222;51.462;12.630;2023-05-29T03:37:03;11.40;99.90
16229;DHT22;8222;51.462;12.630;2023-05-29T03:39:29;11.30;99.90
16229;DHT22;8222;51.462;12.630;2023-05-29T03:41:54;11.60;99.90
16229;DHT22;8222;51.462;12.630;2023-05-29T03:44:20;11.50;99.90
16229;DHT22;8222;51.462;12.630;2023-05-29T03:46:49;11.60;99.90
16229;DHT22;8222;51.462;12.630;2023-05-29T03:49:17;11.60;99.90
16229;DHT22;8222;51.462;12.630;2023-05-29T03:51:43;11.60;99.90
16229;DHT22;8222;51.462;12.630;2023-05-29T03:54:11;11.70;99.90
16229;DHT22;8222;51.462;12.630;2023-05-29T03:56:37;11.60;99.90
16229;DHT22;8222;51.462;12.630;2023-05-29T03:59:05;11.60;99.90
16229;DHT22;8222;51.462;12.630;2023-05-29T04:01:33;11.60;99.90
16229;DHT22;8222;51.462;12.630;2023-05-29T04:03:59;11.60;99.90
16229;DHT22;8222;51.462;12.630;2023-05-29T04:06:25;11.70;99.90
16229;DHT22;8222;51.462;12.630;2023-05-29T04:08:53;11.70;99.90
16229;DHT22;8222;51.462;12.630;2023-05-29T04:11:21;11.70;99.90
16229;DHT22;8222;51.462;12.630;2023-05-29T04:13:48;11.80;99.90
16229;DHT22;8222;51.462;12.630;2023-05-29T04:16:14;11.80;99.90
16229;DHT22;8222;51.462;12.630;2023-05-29T04:18:41;11.90;99.90
16229;DHT22;8222;51.462;12.630;2023-05-29T04:21:09;12.10;99.90
16229;DHT22;8222;51.462;12.630;2023-05-29T04:23:38;12.10;99.90
16229;DHT22;8222;51.462;12.630;2023-05-29T04:26:06;12.10;99.90
16229;DHT22;8222;51.462;12.630;2023-05-29T04:28:31;12.10;99.90
16229;DHT22;8222;51.462;12.630;2023-05-29T04:31:04;12.10;99.90
16229;DHT22;8222;51.462;12.630;2023-05-29T04:33:33;12.20;99.90
16229;DHT22;8222;51.462;12.630;2023-05-29T04:36:02;12.40;99.90
16229;DHT22;8222;51.462;12.630;2023-05-29T04:38:29;12.50;99.90
16229;DHT22;8222;51.462;12.630;2023-05-29T04:41:00;12.50;99.90
16229;DHT22;8222;51.462;12.630;2023-05-29T04:43:26;12.50;99.90
16229;DHT22;8222;51.462;12.630;2023-05-29T04:45:52;12.50;99.90
16229;DHT22;8222;51.462;12.630;2023-05-29T04:48:18;12.50;99.90
16229;DHT22;8222;51.462;12.630;2023-05-29T04:50:44;12.70;99.90
16229;DHT22;8222;51.462;12.630;2023-05-29T04:53:13;13.00;99.90
16229;DHT22;8222;51.462;12.630;2023-05-29T04:55:44;13.00;99.90
16229;DHT22;8222;51.462;12.630;2023-05-29T04:58:12;13.00;99.90
16229;DHT22;8222;51.462;12.630;2023-05-29T05:00:38;13.00;99.90
16229;DHT22;8222;51.462;12.630;2023-05-29T05:03:04;13.10;99.90
16229;DHT22;8222;51.462;12.630;2023-05-29T05:05:29;13.20;99.90
16229;DHT22;8222;51.462;12.630;2023-05-29T05:07:59;13.30;99.90
16229;DHT22;8222;51.462;12.630;2023-05-29T05:10:27;13.40;99.90
16229;DHT22;8222;51.462;12.630;2023-05-29T05:12:53;13.50;99.90
16229;DHT22;8222;51.462;12.630;2023-05-29T05:15:18;13.70;99.90
16229;DHT22;8222;51.462;12.630;2023-05-29T05:17:44;13.80;99.90
16229;DHT22;8222;51.462;12.630;2023-05-29T05:20:13;14.00;99.90
16229;DHT22;8222;51.462;12.630;2023-05-29T05:22:41;14.00;99.90
16229;DHT22;8222;51.462;12.630;2023-05-29T05:25:09;14.20;99.90
16229;DHT22;8222;51.462;12.630;2023-05-29T05:27:35;14.30;99.90
16229;DHT22;8222;51.462;12.630;2023-05-29T05:30:03;14.40;99.90
16229;DHT22;8222;51.462;12.630;2023-05-29T05:32:28;14.60;99.90
16229;DHT22;8222;51.462;12.630;2023-05-29T05:34:56;14.80;99.90
16229;DHT22;8222;51.462;12.630;2023-05-29T05:37:22;14.80;99.90
16229;DHT22;8222;51.462;12.630;2023-05-29T05:39:50;15.00;99.90
16229;DHT22;8222;51.462;12.630;2023-05-29T05:42:23;15.00;99.90
16229;DHT22;8222;51.462;12.630;2023-05-29T05:44:49;15.10;99.90
16229;DHT22;8222;51.462;12.630;2023-05-29T05:47:17;15.20;99.90
16229;DHT22;8222;51.462;12.630;2023-05-29T05:49:43;15.20;99.90
16229;DHT22;8222;51.462;12.630;2023-05-29T05:52:09;15.30;99.90
16229;DHT22;8222;51.462;12.630;2023-05-29T05:54:37;15.40;99.90
16229;DHT22;8222;51.462;12.630;2023-05-29T05:57:03;15.50;99.90
16229;DHT22;8222;51.462;12.630;2023-05-29T05:59:32;15.50;99.90
16229;DHT22;8222;51.462;12.630;2023-05-29T06:01:58;15.80;99.90
16229;DHT22;8222;51.462;12.630;2023-05-29T06:04:24;16.00;99.90
16229;DHT22;8222;51.462;12.630;2023-05-29T06:06:49;16.30;99.90
16229;DHT22;8222;51.462;12.630;2023-05-29T06:09:17;16.40;99.90
16229;DHT22;8222;51.462;12.630;2023-05-29T06:11:46;16.40;99.90
16229;DHT22;8222;51.462;12.630;2023-05-29T06:14:14;16.50;99.90
16229;DHT22;8222;51.462;12.630;2023-05-29T06:16:40;16.60;99.90
16229;DHT22;8222;51.462;12.630;2023-05-29T06:19:06;16.80;99.90
16229;DHT22;8222;51.462;12.630;2023-05-29T06:21:34;16.80;99.90
16229;DHT22;8222;51.462;12.630;2023-05-29T06:24:00;17.00;99.90
16229;DHT22;8222;51.462;12.630;2023-05-29T06:26:26;17.00;99.90
16229;DHT22;8222;51.462;12.630;2023-05-29T06:28:52;17.20;99.90
16229;DHT22;8222;51.462;12.630;2023-05-29T06:31:18;17.20;99.90
16229;DHT22;8222;51.462;12.630;2023-05-29T06:33:44;17.50;99.90
16229;DHT22;8222;51.462;12.630;2023-05-29T06:36:10;17.60;99.90
16229;DHT22;8222;51.462;12.630;2023-05-29T06:38:39;17.50;99.90
16229;DHT22;8222;51.462;12.630;2023-05-29T06:41:05;17.60;99.90
16229;DHT22;8222;51.462;12.630;2023-05-29T06:43:33;17.60;99.90
16229;DHT22;8222;51.462;12.630;2023-05-29T06:45:59;17.60;99.90
16229;DHT22;8222;51.462;12.630;2023-05-29T06:48:35;17.80;99.90
16229;DHT22;8222;51.462;12.630;2023-05-29T06:51:04;18.00;99.90
16229;DHT22;8222;51.462;12.630;2023-05-29T06:53:35;18.10;99.90
16229;DHT22;8222;51.462;12.630;2023-05-29T06:56:01;18.10;99.90
16229;DHT22;8222;51.462;12.630;2023-05-29T06:58:30;18.30;99.90
16229;DHT22;8222;51.462;12.630;2023-05-29T07:00:56;18.50;99.90
16229;DHT22;8222;51.462;12.630;2023-05-29T07:03:23;18.50;99.90
16229;DHT22;8222;51.462;12.630;2023-05-29T07:05:49;18.50;99.90
16229;DHT22;8222;51.462;12.630;2023-05-29T07:08:14;18.50;99.90
16229;DHT22;8222;51.462;12.630;2023-05-29T07:10:40;18.60;99.90
16229;DHT22;8222;51.462;12.630;2023-05-29T07:13:08;18.90;99.90
16229;DHT22;8222;51.462;12.630;2023-05-29T07:15:37;19.20;99.90
16229;DHT22;8222;51.462;12.630;2023-05-29T07:18:05;19.40;99.90
16229;DHT22;8222;51.462;12.630;2023-05-29T07:20:33;19.40;99.90
16229;DHT22;8222;51.462;12.630;2023-05-29T07:22:59;19.40;99.90
16229;DHT22;8222;51.462;12.630;2023-05-29T07:25:27;19.50;99.90
16229;DHT22;8222;51.462;12.630;2023-05-29T07:27:53;19.50;99.90
16229;DHT22;8222;51.462;12.630;2023-05-29T07:30:19;19.50;99.90
16229;DHT22;8222;51.462;12.630;2023-05-29T07:32:45;19.70;99.90
16229;DHT22;8222;51.462;12.630;2023-05-29T07:35:11;19.70;99.90
16229;DHT22;8222;51.462;12.630;2023-05-29T07:37:37;19.80;99.90
16229;DHT22;8222;51.462;12.630;2023-05-29T07:40:03;20.00;99.90
16229;DHT22;8222;51.462;12.630;2023-05-29T07:42:33;20.00;99.90
16229;DHT22;8222;51.462;12.630;2023-05-29T07:44:59;20.20;99.90
16229;DHT22;8222;51.462;12.630;2023-05-29T07:47:27;20.10;99.90
16229;DHT22;8222;51.462;12.630;2023-05-29T07:49:53;20.50;99.90
16229;DHT22;8222;51.462;12.630;2023-05-29T07:52:19;20.70;99.90
16229;DHT22;8222;51.462;12.630;2023-05-29T07:54:47;20.90;99.90
16229;DHT22;8222;51.462;12.630;2023-05-29T07:57:13;20.80;99.90
16229;DHT22;8222;51.462;12.630;2023-05-29T07:59:43;20.90;99.90
16229;DHT22;8222;51.462;12.630;2023-05-29T08:02:12;21.00;99.90
16229;DHT22;8222;51.462;12.630;2023-05-29T08:04:43;21.40;99.90
16229;DHT22;8222;51.462;12.630;2023-05-29T08:07:08;21.70;99.90
16229;DHT22;8222;51.462;12.630;2023-05-29T08:09:35;21.90;99.90
16229;DHT22;8222;51.462;12.630;2023-05-29T08:12:01;22.10;99.90
16229;DHT22;8222;51.462;12.630;2023-05-29T08:14:27;22.20;99.90
16229;DHT22;8222;51.462;12.630;2023-05-29T08:16:53;22.30;99.90
16229;DHT22;8222;51.462;12.630;2023-05-29T08:19:18;22.10;99.90
16229;DHT22;8222;51.462;12.630;2023-05-29T08:21:46;22.10;99.90
16229;DHT22;8222;51.462;12.630;2023-05-29T08:24:17;22.10;99.00
16229;DHT22;8222;51.462;12.630;2023-05-29T08:26:45;21.80;99.60
16229;DHT22;8222;51.462;12.630;2023-05-29T08:29:10;21.80;99.90
16229;DHT22;8222;51.462;12.630;2023-05-29T08:31:38;21.90;99.40
16229;DHT22;8222;51.462;12.630;2023-05-29T08:34:04;22.50;99.90
16229;DHT22;8222;51.462;12.630;2023-05-29T08:36:32;22.60;96.80
16229;DHT22;8222;51.462;12.630;2023-05-29T08:38:58;22.50;96.20
16229;DHT22;8222;51.462;12.630;2023-05-29T08:44:17;22.80;96.60
16229;DHT22;8222;51.462;12.630;2023-05-29T08:46:46;22.70;93.40
16229;DHT22;8222;51.462;12.630;2023-05-29T08:49:19;22.70;94.30
16229;DHT22;8222;51.462;12.630;2023-05-29T08:51:47;23.20;93.40
16229;DHT22;8222;51.462;12.630;2023-05-29T08:54:16;22.90;91.90
16229;DHT22;8222;51.462;12.630;2023-05-29T08:56:42;22.70;91.10
16229;DHT22;8222;51.462;12.630;2023-05-29T08:59:08;22.60;89.50
16229;DHT22;8222;51.462;12.630;2023-05-29T09:01:35;22.70;91.10
16229;DHT22;8222;51.462;12.630;2023-05-29T09:04:04;22.60;91.40
16229;DHT22;8222;51.462;12.630;2023-05-29T09:06:33;22.50;91.30
16229;DHT22;8222;51.462;12.630;2023-05-29T09:08:59;22.70;93.00
16229;DHT22;8222;51.462;12.630;2023-05-29T09:11:25;22.80;93.80
16229;DHT22;8222;51.462;12.630;2023-05-29T09:13:52;23.00;92.70
16229;DHT22;8222;51.462;12.630;2023-05-29T09:16:18;22.90;93.70
16229;DHT22;8222;51.462;12.630;2023-05-29T09:18:46;22.90;91.10
16229;DHT22;8222;51.462;12.630;2023-05-29T09:21:30;23.00;89.80
16229;DHT22;8222;51.462;12.630;2023-05-29T09:24:04;22.80;88.80
16229;DHT22;8222;51.462;12.630;2023-05-29T09:26:31;22.70;91.10
16229;DHT22;8222;51.462;12.630;2023-05-29T09:29:00;23.00;90.10
16229;DHT22;8222;51.462;12.630;2023-05-29T09:31:26;23.40;90.00
16229;DHT22;8222;51.462;12.630;2023-05-29T09:33:52;23.60;91.30
16229;DHT22;8222;51.462;12.630;2023-05-29T09:36:21;23.60;86.50
16229;DHT22;8222;51.462;12.630;2023-05-29T09:39:03;23.30;87.20
16229;DHT22;8222;51.462;12.630;2023-05-29T09:41:46;23.60;89.50
16229;DHT22;8222;51.462;12.630;2023-05-29T09:44:14;23.90;89.80
16229;DHT22;8222;51.462;12.630;2023-05-29T09:46:41;23.90;87.70
16229;DHT22;8222;51.462;12.630;2023-05-29T09:49:44;24.00;86.70
16229;DHT22;8222;51.462;12.630;2023-05-29T09:52:12;23.70;83.70
16229;DHT22;8222;51.462;12.630;2023-05-29T09:54:44;23.90;87.50
16229;DHT22;8222;51.462;12.630;2023-05-29T09:57:16;23.90;84.30
16229;DHT22;8222;51.462;12.630;2023-05-29T09:59:45;23.60;83.20
16229;DHT22;8222;51.462;12.630;2023-05-29T10:02:24;23.60;83.40
16229;DHT22;8222;51.462;12.630;2023-05-29T10:04:56;23.70;80.80
16229;DHT22;8222;51.462;12.630;2023-05-29T10:09:58;23.60;81.60
16229;DHT22;8222;51.462;12.630;2023-05-29T10:12:53;23.50;81.30
16229;DHT22;8222;51.462;12.630;2023-05-29T10:15:26;23.90;84.30
16229;DHT22;8222;51.462;12.630;2023-05-29T10:18:32;24.30;81.30
16229;DHT22;8222;51.462;12.630;2023-05-29T10:21:07;24.70;78.50
16229;DHT22;8222;51.462;12.630;2023-05-29T10:23:45;24.60;79.50
16229;DHT22;8222;51.462;12.630;2023-05-29T10:26:39;24.70;80.00
16229;DHT22;8222;51.462;12.630;2023-05-29T10:40:34;24.70;73.70
16229;DHT22;8222;51.462;12.630;2023-05-29T10:43:36;25.10;74.10
16229;DHT22;8222;51.462;12.630;2023-05-29T10:46:21;25.10;70.40
16229;DHT22;8222;51.462;12.630;2023-05-29T10:49:32;25.40;71.40
16229;DHT22;8222;51.462;12.630;2023-05-29T10:56:10;25.70;71.30
16229;DHT22;8222;51.462;12.630;2023-05-29T10:59:04;25.40;70.30
16229;DHT22;8222;51.462;12.630;2023-05-29T11:01:44;25.00;69.10
16229;DHT22;8222;51.462;12.630;2023-05-29T11:05:03;24.90;72.90
16229;DHT22;8222;51.462;12.630;2023-05-29T11:08:22;24.90;70.00
16229;DHT22;8222;51.462;12.630;2023-05-29T11:14:31;25.20;68.10
16229;DHT22;8222;51.462;12.630;2023-05-29T11:17:45;24.90;68.60
16229;DHT22;8222;51.462;12.630;2023-05-29T11:21:04;25.30;71.30
16229;DHT22;8222;51.462;12.630;2023-05-29T11:24:13;25.10;69.10
16229;DHT22;8222;51.462;12.630;2023-05-29T11:31:10;25.20;68.40
16229;DHT22;8222;51.462;12.630;2023-05-29T11:33:48;25.50;67.60
16229;DHT22;8222;51.462;12.630;2023-05-29T11:39:53;25.50;64.40
16229;DHT22;8222;51.462;12.630;2023-05-29T11:43:12;25.90;68.00
16229;DHT22;8222;51.462;12.630;2023-05-29T11:46:01;25.60;66.40
16229;DHT22;8222;51.462;12.630;2023-05-29T11:58:13;25.90;65.90
16229;DHT22;8222;51.462;12.630;2023-05-29T12:00:57;26.20;63.70
16229;DHT22;8222;51.462;12.630;2023-05-29T12:43:33;26.90;63.50
16229;DHT22;8222;51.462;12.630;2023-05-29T13:31:05;26.10;61.90
16229;DHT22;8222;51.462;12.630;2023-05-29T13:33:52;26.70;60.20
16229;DHT22;8222;51.462;12.630;2023-05-29T13:36:23;26.80;59.60
16229;DHT22;8222;51.462;12.630;2023-05-29T14:04:03;25.70;61.50
16229;DHT22;8222;51.462;12.630;2023-05-29T14:17:14;26.50;62.30
16229;DHT22;8222;51.462;12.630;2023-05-29T14:23:24;26.30;61.60
16229;DHT22;8222;51.462;12.630;2023-05-29T14:26:16;26.30;62.20
16229;DHT22;8222;51.462;12.630;2023-05-29T14:32:32;26.30;62.20
16229;DHT22;8222;51.462;12.630;2023-05-29T14:35:20;26.50;61.70
16229;DHT22;8222;51.462;12.630;2023-05-29T14:38:17;26.30;60.60
16229;DHT22;8222;51.462;12.630;2023-05-29T14:41:20;26.30;62.20
16229;DHT22;8222;51.462;12.630;2023-05-29T15:00:53;25.10;65.60
16229;DHT22;8222;51.462;12.630;2023-05-29T15:03:23;24.90;66.40
16229;DHT22;8222;51.462;12.630;2023-05-29T15:06:09;24.90;66.70
16229;DHT22;8222;51.462;12.630;2023-05-29T15:08:41;24.90;67.10
16229;DHT22;8222;51.462;12.630;2023-05-29T15:11:20;24.70;68.10
16229;DHT22;8222;51.462;12.630;2023-05-29T15:14:40;24.50;68.40
16229;DHT22;8222;51.462;12.630;2023-05-29T15:18:12;24.80;69.00
16229;DHT22;8222;51.462;12.630;2023-05-29T15:24:19;24.90;70.20
16229;DHT22;8222;51.462;12.630;2023-05-29T15:27:00;24.80;71.10
16229;DHT22;8222;51.462;12.630;2023-05-29T15:29:48;24.60;71.70
16229;DHT22;8222;51.462;12.630;2023-05-29T15:32:43;24.60;72.10
16229;DHT22;8222;51.462;12.630;2023-05-29T15:35:38;24.50;71.10
16229;DHT22;8222;51.462;12.630;2023-05-29T15:38:42;24.30;72.60
16229;DHT22;8222;51.462;12.630;2023-05-29T15:41:41;24.00;74.80
16229;DHT22;8222;51.462;12.630;2023-05-29T15:44:23;24.10;74.10
16229;DHT22;8222;51.462;12.630;2023-05-29T15:46:53;24.30;72.90
16229;DHT22;8222;51.462;12.630;2023-05-29T15:49:26;24.30;74.20
16229;DHT22;8222;51.462;12.630;2023-05-29T15:52:01;24.60;72.70
16229;DHT22;8222;51.462;12.630;2023-05-29T15:54:37;24.70;73.00
16229;DHT22;8222;51.462;12.630;2023-05-29T15:57:12;24.80;73.00
16229;DHT22;8222;51.462;12.630;2023-05-29T16:03:13;26.00;68.10
16229;DHT22;8222;51.462;12.630;2023-05-29T16:05:39;26.40;67.30
16229;DHT22;8222;51.462;12.630;2023-05-29T16:08:08;27.10;66.00
16229;DHT22;8222;51.462;12.630;2023-05-29T16:10:36;27.40;63.70
16229;DHT22;8222;51.462;12.630;2023-05-29T16:13:06;27.50;63.10
16229;DHT22;8222;51.462;12.630;2023-05-29T16:15:34;27.60;63.30
16229;DHT22;8222;51.462;12.630;2023-05-29T16:18:02;28.00;62.20
16229;DHT22;8222;51.462;12.630;2023-05-29T16:20:30;28.00;62.40
16229;DHT22;8222;51.462;12.630;2023-05-29T16:22:59;27.60;61.60
16229;DHT22;8222;51.462;12.630;2023-05-29T16:25:24;27.50;60.60
16229;DHT22;8222;51.462;12.630;2023-05-29T16:27:58;27.80;61.10
16229;DHT22;8222;51.462;12.630;2023-05-29T16:30:29;27.70;59.50
16229;DHT22;8222;51.462;12.630;2023-05-29T16:33:03;27.50;60.10
16229;DHT22;8222;51.462;12.630;2023-05-29T16:35:36;27.20;60.70
16229;DHT22;8222;51.462;12.630;2023-05-29T16:38:09;27.50;58.60
16229;DHT22;8222;51.462;12.630;2023-05-29T16:40:46;27.40;59.00
16229;DHT22;8222;51.462;12.630;2023-05-29T16:43:18;27.70;58.70
16229;DHT22;8222;51.462;12.630;2023-05-29T16:45:50;27.80;59.30
16229;DHT22;8222;51.462;12.630;2023-05-29T16:48:24;27.40;59.30
16229;DHT22;8222;51.462;12.630;2023-05-29T16:50:54;26.90;59.90
16229;DHT22;8222;51.462;12.630;2023-05-29T16:53:20;26.80;61.00
16229;DHT22;8222;51.462;12.630;2023-05-29T16:55:48;26.60;60.40
16229;DHT22;8222;51.462;12.630;2023-05-29T16:58:49;26.70;60.20
16229;DHT22;8222;51.462;12.630;2023-05-29T17:01:20;27.20;59.80
16229;DHT22;8222;51.462;12.630;2023-05-29T17:03:53;27.00;59.50
16229;DHT22;8222;51.462;12.630;2023-05-29T17:06:18;27.50;59.40
16229;DHT22;8222;51.462;12.630;2023-05-29T17:09:08;27.70;59.60
16229;DHT22;8222;51.462;12.630;2023-05-29T17:11:34;27.50;60.00
16229;DHT22;8222;51.462;12.630;2023-05-29T17:14:15;27.50;57.70
16229;DHT22;8222;51.462;12.630;2023-05-29T17:16:40;27.00;57.30
16229;DHT22;8222;51.462;12.630;2023-05-29T17:19:16;27.10;58.50
16229;DHT22;8222;51.462;12.630;2023-05-29T17:21:44;27.20;58.10
16229;DHT22;8222;51.462;12.630;2023-05-29T17:24:16;27.00;58.00
16229;DHT22;8222;51.462;12.630;2023-05-29T17:26:50;26.70;58.80
16229;DHT22;8222;51.462;12.630;2023-05-29T17:29:18;26.20;58.50
16229;DHT22;8222;51.462;12.630;2023-05-29T17:31:59;25.90;59.40
16229;DHT22;8222;51.462;12.630;2023-05-29T17:34:30;25.40;60.00
16229;DHT22;8222;51.462;12.630;2023-05-29T17:37:01;25.20;60.60
16229;DHT22;8222;51.462;12.630;2023-05-29T17:39:29;25.00;61.00
16229;DHT22;8222;51.462;12.630;2023-05-29T17:41:59;25.20;60.90
16229;DHT22;8222;51.462;12.630;2023-05-29T17:44:32;25.30;61.20
16229;DHT22;8222;51.462;12.630;2023-05-29T17:47:04;25.20;61.40
16229;DHT22;8222;51.462;12.630;2023-05-29T17:49:35;25.00;61.20
16229;DHT22;8222;51.462;12.630;2023-05-29T17:52:24;24.80;62.10
16229;DHT22;8222;51.462;12.630;2023-05-29T17:55:08;24.50;62.40
16229;DHT22;8222;51.462;12.630;2023-05-29T17:57:36;24.20;64.00
16229;DHT22;8222;51.462;12.630;2023-05-29T18:00:03;24.10;64.00
16229;DHT22;8222;51.462;12.630;2023-05-29T18:02:32;23.80;65.20
16229;DHT22;8222;51.462;12.630;2023-05-29T18:04:58;23.70;65.80
16229;DHT22;8222;51.462;12.630;2023-05-29T18:07:37;23.30;65.50
16229;DHT22;8222;51.462;12.630;2023-05-29T18:10:04;23.10;66.10
16229;DHT22;8222;51.462;12.630;2023-05-29T18:12:49;22.80;67.20
16229;DHT22;8222;51.462;12.630;2023-05-29T18:15:18;22.50;68.00
16229;DHT22;8222;51.462;12.630;2023-05-29T18:17:46;22.20;68.80
16229;DHT22;8222;51.462;12.630;2023-05-29T18:20:13;22.20;68.90
16229;DHT22;8222;51.462;12.630;2023-05-29T18:22:44;22.10;69.60
16229;DHT22;8222;51.462;12.630;2023-05-29T18:25:13;21.90;70.20
16229;DHT22;8222;51.462;12.630;2023-05-29T18:27:44;21.70;70.90
16229;DHT22;8222;51.462;12.630;2023-05-29T18:30:15;21.40;71.10
16229;DHT22;8222;51.462;12.630;2023-05-29T18:32:41;21.10;72.10
16229;DHT22;8222;51.462;12.630;2023-05-29T18:35:09;21.00;73.10
16229;DHT22;8222;51.462;12.630;2023-05-29T18:37:35;20.80;73.70
16229;DHT22;8222;51.462;12.630;2023-05-29T18:40:03;20.80;73.90
16229;DHT22;8222;51.462;12.630;2023-05-29T18:42:29;20.60;74.40
16229;DHT22;8222;51.462;12.630;2023-05-29T18:44:55;20.60;75.50
16229;DHT22;8222;51.462;12.630;2023-05-29T18:50:12;20.20;77.00
16229;DHT22;8222;51.462;12.630;2023-05-29T18:52:41;20.00;78.00
16229;DHT22;8222;51.462;12.630;2023-05-29T18:55:09;20.00;79.20
16229;DHT22;8222;51.462;12.630;2023-05-29T18:57:35;19.90;79.90
16229;DHT22;8222;51.462;12.630;2023-05-29T19:00:01;19.90;80.10
16229;DHT22;8222;51.462;12.630;2023-05-29T19:02:27;19.90;80.90
16229;DHT22;8222;51.462;12.630;2023-05-29T19:04:53;19.80;81.70
16229;DHT22;8222;51.462;12.630;2023-05-29T19:07:21;19.60;82.70
16229;DHT22;8222;51.462;12.630;2023-05-29T19:09:47;19.60;83.50
16229;DHT22;8222;51.462;12.630;2023-05-29T19:12:14;19.50;84.60
16229;DHT22;8222;51.462;12.630;2023-05-29T19:14:41;19.40;85.00
16229;DHT22;8222;51.462;12.630;2023-05-29T19:17:07;19.30;86.60
16229;DHT22;8222;51.462;12.630;2023-05-29T19:19:35;19.30;88.70
16229;DHT22;8222;51.462;12.630;2023-05-29T19:22:07;19.40;89.40